Latest Weather Forecast - Tuesday 14th January 2020 (6pm)

Forecast Period:  6:00 pm 14th January 2020 to 6:00 am  15th January 2020
Synopsis: Unstable conditions are affecting the islands
Forecast: Mostly cloudy and breezy at times, with periods of rain and pockets of moderate showers

Weather 
Advisory/Warning:

None

Winds: East northeasterly  at 30 – 45 km/h ( 19 - 28 mph )
Sea Conditions:

Moderate to rough in open water; north northeasterly swells (2.0 - 3.0m)

Marine 
Advisory/Warning:

High-Surf Advisory and a Small-Craft Warning to be discontinued at 6 am Wednesday 15, 2020

Upcoming Tides:
High: 10:29 pm (14th) 09:01 am 11:04 pm
Low: 03:44 am 04:39 pm  

Aviation WX

[Source: ADDS]
METAR
TVSA 201000Z 07010KT 030V100 9999 SCT020 26/22 Q1014 NOSIG =
TVSA 201100Z 2012/2112 07010KT 9999 SCT018 PROB40 TEMPO 2100/2109 SHRA BKN015 SCT032
TAF
TVSA 201100Z 2012/2112 07010KT 9999 SCT018 PROB40 TEMPO 2100/2109 SHRA BKN015 SCT032 =
SR / SS: 10:31 / 21:59 UTC (Sunrise Sunset 2020-01-20)